sensor_id;sensor_type;location;lat;lon;timestamp;pressure;altitude;pressure_sealevel;temperature;humidity
58757;BME280;44527;47.460;19.016;2023-06-26T00:02:45;100175.38;;;19.02;87.83
58757;BME280;44527;47.460;19.016;2023-06-26T00:05:48;100173.88;;;19.08;87.44
58757;BME280;44527;47.460;19.016;2023-06-26T00:08:50;100171.00;;;18.67;90.46
58757;BME280;44527;47.460;19.016;2023-06-26T00:11:53;100168.94;;;18.52;91.21
58757;BME280;44527;47.460;19.016;2023-06-26T00:14:55;100169.13;;;18.59;91.10
58757;BME280;44527;47.460;19.016;2023-06-26T00:17:58;100169.84;;;18.69;90.34
58757;BME280;44527;47.460;19.016;2023-06-26T00:21:01;100171.53;;;18.70;89.34
58757;BME280;44527;47.460;19.016;2023-06-26T00:24:06;100171.31;;;18.64;89.77
58757;BME280;44527;47.460;19.016;2023-06-26T00:27:08;100167.03;;;18.45;91.42
58757;BME280;44527;47.460;19.016;2023-06-26T00:30:11;100171.47;;;18.36;91.63
58757;BME280;44527;47.460;19.016;2023-06-26T00:33:14;100166.72;;;18.48;91.29
58757;BME280;44527;47.460;19.016;2023-06-26T00:36:16;100180.59;;;18.59;90.94
58757;BME280;44527;47.460;19.016;2023-06-26T00:39:19;100182.16;;;18.44;91.33
58757;BME280;44527;47.460;19.016;2023-06-26T00:42:21;100181.75;;;18.57;90.03
58757;BME280;44527;47.460;19.016;2023-06-26T00:45:23;100182.87;;;18.54;89.47
58757;BME280;44527;47.460;19.016;2023-06-26T00:48:44;100179.50;;;18.44;90.66
58757;BME280;44527;47.460;19.016;2023-06-26T00:51:48;100172.72;;;18.24;91.49
58757;BME280;44527;47.460;19.016;2023-06-26T00:54:51;100169.59;;;18.28;91.04
58757;BME280;44527;47.460;19.016;2023-06-26T00:57:55;100173.53;;;18.24;90.64
58757;BME280;44527;47.460;19.016;2023-06-26T01:00:57;100170.47;;;18.11;90.93
58757;BME280;44527;47.460;19.016;2023-06-26T01:04:00;100167.50;;;18.14;90.49
58757;BME280;44527;47.460;19.016;2023-06-26T01:07:03;100161.03;;;18.17;90.55
58757;BME280;44527;47.460;19.016;2023-06-26T01:10:07;100163.09;;;18.23;90.09
58757;BME280;44527;47.460;19.016;2023-06-26T01:13:11;100162.28;;;18.30;89.34
58757;BME280;44527;47.460;19.016;2023-06-26T01:16:14;100156.72;;;18.16;89.94
58757;BME280;44527;47.460;19.016;2023-06-26T01:19:27;100150.88;;;18.12;90.01
58757;BME280;44527;47.460;19.016;2023-06-26T01:29:09;100142.44;;;18.17;89.10
58757;BME280;44527;47.460;19.016;2023-06-26T01:32:12;100139.94;;;18.15;89.24
58757;BME280;44527;47.460;19.016;2023-06-26T01:35:15;100143.06;;;18.10;88.83
58757;BME280;44527;47.460;19.016;2023-06-26T01:38:19;100140.03;;;18.05;88.87
58757;BME280;44527;47.460;19.016;2023-06-26T01:41:22;100132.37;;;18.02;89.27
58757;BME280;44527;47.460;19.016;2023-06-26T01:44:29;100137.69;;;18.02;89.63
58757;BME280;44527;47.460;19.016;2023-06-26T01:47:35;100142.19;;;17.84;91.23
58757;BME280;44527;47.460;19.016;2023-06-26T01:50:40;100139.41;;;17.85;91.69
58757;BME280;44527;47.460;19.016;2023-06-26T01:53:46;100142.25;;;17.92;91.69
58757;BME280;44527;47.460;19.016;2023-06-26T01:56:52;100145.31;;;17.79;91.80
58757;BME280;44527;47.460;19.016;2023-06-26T01:59:56;100151.28;;;17.81;92.38
58757;BME280;44527;47.460;19.016;2023-06-26T02:03:01;100153.16;;;17.71;92.24
58757;BME280;44527;47.460;19.016;2023-06-26T02:06:03;100153.16;;;17.53;93.68
58757;BME280;44527;47.460;19.016;2023-06-26T02:09:06;100147.09;;;17.43;94.82
58757;BME280;44527;47.460;19.016;2023-06-26T02:12:11;100152.69;;;17.40;94.82
58757;BME280;44527;47.460;19.016;2023-06-26T02:15:13;100146.47;;;17.31;95.05
58757;BME280;44527;47.460;19.016;2023-06-26T02:18:16;100145.56;;;17.40;94.73
58757;BME280;44527;47.460;19.016;2023-06-26T02:21:19;100142.78;;;17.42;94.32
58757;BME280;44527;47.460;19.016;2023-06-26T02:24:22;100149.59;;;17.27;95.93
58757;BME280;44527;47.460;19.016;2023-06-26T02:27:24;100149.25;;;17.12;97.30
58757;BME280;44527;47.460;19.016;2023-06-26T02:30:27;100151.97;;;17.20;97.22
58757;BME280;44527;47.460;19.016;2023-06-26T02:33:30;100156.69;;;17.26;95.52
58757;BME280;44527;47.460;19.016;2023-06-26T02:36:32;100158.38;;;17.27;95.14
58757;BME280;44527;47.460;19.016;2023-06-26T02:39:39;100161.56;;;17.31;94.90
58757;BME280;44527;47.460;19.016;2023-06-26T02:42:42;100162.00;;;17.26;95.42
58757;BME280;44527;47.460;19.016;2023-06-26T02:45:44;100168.22;;;17.35;95.13
58757;BME280;44527;47.460;19.016;2023-06-26T02:48:47;100168.81;;;17.29;95.79
58757;BME280;44527;47.460;19.016;2023-06-26T02:51:49;100168.16;;;17.27;96.17
58757;BME280;44527;47.460;19.016;2023-06-26T02:54:52;100160.97;;;17.55;93.39
58757;BME280;44527;47.460;19.016;2023-06-26T02:57:54;100175.31;;;17.62;92.83
58757;BME280;44527;47.460;19.016;2023-06-26T03:00:57;100170.28;;;17.41;94.90
58757;BME280;44527;47.460;19.016;2023-06-26T03:03:59;100175.50;;;17.51;93.83
58757;BME280;44527;47.460;19.016;2023-06-26T03:07:03;100180.34;;;17.37;94.73
58757;BME280;44527;47.460;19.016;2023-06-26T03:10:07;100173.81;;;17.32;95.07
58757;BME280;44527;47.460;19.016;2023-06-26T03:13:09;100177.91;;;17.26;95.11
58757;BME280;44527;47.460;19.016;2023-06-26T03:16:12;100174.41;;;17.26;96.14
58757;BME280;44527;47.460;19.016;2023-06-26T03:19:15;100169.56;;;17.21;97.76
58757;BME280;44527;47.460;19.016;2023-06-26T03:22:19;100175.87;;;17.38;95.86
58757;BME280;44527;47.460;19.016;2023-06-26T03:25:22;100177.41;;;17.40;95.47
58757;BME280;44527;47.460;19.016;2023-06-26T03:28:26;100184.44;;;17.32;95.37
58757;BME280;44527;47.460;19.016;2023-06-26T03:31:29;100188.31;;;17.10;97.40
58757;BME280;44527;47.460;19.016;2023-06-26T03:34:32;100176.84;;;17.19;96.21
58757;BME280;44527;47.460;19.016;2023-06-26T03:37:35;100178.19;;;17.05;98.49
58757;BME280;44527;47.460;19.016;2023-06-26T03:40:37;100176.94;;;16.99;99.35
58757;BME280;44527;47.460;19.016;2023-06-26T03:43:40;100178.12;;;17.15;97.38
58757;BME280;44527;47.460;19.016;2023-06-26T03:46:43;100180.13;;;17.31;96.32
58757;BME280;44527;47.460;19.016;2023-06-26T03:49:46;100181.19;;;17.38;95.54
58757;BME280;44527;47.460;19.016;2023-06-26T03:52:48;100179.37;;;17.38;97.18
58757;BME280;44527;47.460;19.016;2023-06-26T03:55:52;100180.78;;;17.15;97.17
58757;BME280;44527;47.460;19.016;2023-06-26T03:58:56;100186.37;;;17.12;96.92
58757;BME280;44527;47.460;19.016;2023-06-26T04:02:00;100195.44;;;17.09;97.39
58757;BME280;44527;47.460;19.016;2023-06-26T04:05:03;100190.03;;;17.01;96.97
58757;BME280;44527;47.460;19.016;2023-06-26T04:08:06;100184.59;;;17.03;97.47
58757;BME280;44527;47.460;19.016;2023-06-26T04:11:09;100192.44;;;17.22;96.01
58757;BME280;44527;47.460;19.016;2023-06-26T04:14:12;100182.84;;;17.21;96.82
58757;BME280;44527;47.460;19.016;2023-06-26T04:17:15;100183.94;;;17.46;95.86
58757;BME280;44527;47.460;19.016;2023-06-26T04:20:17;100190.47;;;17.52;94.60
58757;BME280;44527;47.460;19.016;2023-06-26T04:23:20;100184.41;;;17.59;95.24
58757;BME280;44527;47.460;19.016;2023-06-26T04:26:23;100187.22;;;17.76;94.34
58757;BME280;44527;47.460;19.016;2023-06-26T04:29:28;100197.94;;;18.02;93.26
58757;BME280;44527;47.460;19.016;2023-06-26T04:32:30;100198.16;;;18.52;90.52
58757;BME280;44527;47.460;19.016;2023-06-26T04:35:33;100198.16;;;18.52;90.98
58757;BME280;44527;47.460;19.016;2023-06-26T04:38:38;100200.72;;;18.62;92.08
58757;BME280;44527;47.460;19.016;2023-06-26T04:41:41;100183.97;;;19.46;87.85
58757;BME280;44527;47.460;19.016;2023-06-26T04:44:43;100198.22;;;20.53;80.26
58757;BME280;44527;47.460;19.016;2023-06-26T04:47:45;100208.62;;;22.88;68.95
58757;BME280;44527;47.460;19.016;2023-06-26T04:50:48;100215.56;;;25.12;59.03
58757;BME280;44527;47.460;19.016;2023-06-26T04:53:56;100210.06;;;25.95;55.21
58757;BME280;44527;47.460;19.016;2023-06-26T04:56:58;100220.72;;;27.27;51.39
58757;BME280;44527;47.460;19.016;2023-06-26T05:00:03;100218.16;;;27.84;48.89
58757;BME280;44527;47.460;19.016;2023-06-26T05:03:13;100220.94;;;29.51;45.41
58757;BME280;44527;47.460;19.016;2023-06-26T05:06:16;100218.72;;;30.67;41.90
58757;BME280;44527;47.460;19.016;2023-06-26T05:09:18;100219.91;;;32.43;39.28
58757;BME280;44527;47.460;19.016;2023-06-26T05:12:22;100216.22;;;32.66;36.81
58757;BME280;44527;47.460;19.016;2023-06-26T05:15:24;100220.63;;;33.11;36.00
58757;BME280;44527;47.460;19.016;2023-06-26T05:18:28;100219.59;;;33.61;35.44
58757;BME280;44527;47.460;19.016;2023-06-26T05:21:30;100217.47;;;33.20;35.47
58757;BME280;44527;47.460;19.016;2023-06-26T05:24:35;100216.94;;;33.45;35.36
58757;BME280;44527;47.460;19.016;2023-06-26T05:27:38;100204.69;;;33.69;35.34
58757;BME280;44527;47.460;19.016;2023-06-26T05:30:40;100211.69;;;33.60;35.03
58757;BME280;44527;47.460;19.016;2023-06-26T05:33:44;100212.88;;;34.71;33.70
58757;BME280;44527;47.460;19.016;2023-06-26T05:36:49;100223.97;;;36.21;31.05
58757;BME280;44527;47.460;19.016;2023-06-26T05:39:52;100214.28;;;34.79;32.60
58757;BME280;44527;47.460;19.016;2023-06-26T05:42:55;100222.81;;;35.65;31.81
58757;BME280;44527;47.460;19.016;2023-06-26T05:45:57;100212.81;;;35.13;33.12
58757;BME280;44527;47.460;19.016;2023-06-26T05:49:01;100223.69;;;36.17;31.92
58757;BME280;44527;47.460;19.016;2023-06-26T05:52:04;100219.47;;;35.43;32.77
58757;BME280;44527;47.460;19.016;2023-06-26T05:55:07;100223.81;;;35.34;32.35
58757;BME280;44527;47.460;19.016;2023-06-26T05:58:10;100218.75;;;35.83;32.47
58757;BME280;44527;47.460;19.016;2023-06-26T06:01:14;100213.56;;;36.33;31.08
58757;BME280;44527;47.460;19.016;2023-06-26T06:04:16;100219.78;;;35.57;32.73
58757;BME280;44527;47.460;19.016;2023-06-26T06:07:19;100216.87;;;36.04;32.49
58757;BME280;44527;47.460;19.016;2023-06-26T06:10:21;100215.16;;;36.75;28.11
58757;BME280;44527;47.460;19.016;2023-06-26T06:13:25;100204.00;;;36.51;29.63
58757;BME280;44527;47.460;19.016;2023-06-26T06:16:29;100206.16;;;36.64;30.44
58757;BME280;44527;47.460;19.016;2023-06-26T06:19:31;100219.03;;;38.17;25.44
58757;BME280;44527;47.460;19.016;2023-06-26T06:22:34;100215.34;;;38.56;24.39
58757;BME280;44527;47.460;19.016;2023-06-26T06:25:37;100220.31;;;38.78;24.04
58757;BME280;44527;47.460;19.016;2023-06-26T06:28:43;100221.06;;;38.89;24.00
58757;BME280;44527;47.460;19.016;2023-06-26T06:31:45;100229.19;;;38.46;24.49
58757;BME280;44527;47.460;19.016;2023-06-26T06:34:49;100224.66;;;38.84;23.54
58757;BME280;44527;47.460;19.016;2023-06-26T06:37:51;100224.81;;;38.45;24.20
58757;BME280;44527;47.460;19.016;2023-06-26T06:40:53;100219.38;;;37.71;25.09
58757;BME280;44527;47.460;19.016;2023-06-26T06:43:56;100220.00;;;37.58;25.57
58757;BME280;44527;47.460;19.016;2023-06-26T06:46:59;100231.38;;;38.44;24.29
58757;BME280;44527;47.460;19.016;2023-06-26T06:50:01;100215.28;;;38.32;25.03
58757;BME280;44527;47.460;19.016;2023-06-26T06:53:10;100224.47;;;38.76;24.46
58757;BME280;44527;47.460;19.016;2023-06-26T06:56:13;100220.25;;;38.83;24.13
58757;BME280;44527;47.460;19.016;2023-06-26T06:59:15;100221.91;;;38.02;24.70
58757;BME280;44527;47.460;19.016;2023-06-26T07:02:18;100224.66;;;37.97;25.96
58757;BME280;44527;47.460;19.016;2023-06-26T07:05:21;100217.88;;;37.45;25.57
58757;BME280;44527;47.460;19.016;2023-06-26T07:08:24;100216.34;;;37.23;26.40
58757;BME280;44527;47.460;19.016;2023-06-26T07:11:27;100218.50;;;37.76;25.76
58757;BME280;44527;47.460;19.016;2023-06-26T07:14:30;100225.03;;;38.49;24.41
58757;BME280;44527;47.460;19.016;2023-06-26T07:17:33;100218.31;;;38.89;23.85
58757;BME280;44527;47.460;19.016;2023-06-26T07:20:36;100210.94;;;38.60;24.38
58757;BME280;44527;47.460;19.016;2023-06-26T07:23:39;100217.31;;;38.51;24.98
58757;BME280;44527;47.460;19.016;2023-06-26T07:26:41;100205.84;;;38.49;24.48
58757;BME280;44527;47.460;19.016;2023-06-26T07:29:48;100219.31;;;39.17;23.30
58757;BME280;44527;47.460;19.016;2023-06-26T07:32:51;100213.97;;;39.26;23.24
58757;BME280;44527;47.460;19.016;2023-06-26T07:35:54;100211.88;;;38.99;23.57
58757;BME280;44527;47.460;19.016;2023-06-26T07:38:58;100210.66;;;38.33;23.65
58757;BME280;44527;47.460;19.016;2023-06-26T07:46:43;100208.12;;;38.66;24.40
58757;BME280;44527;47.460;19.016;2023-06-26T07:54:19;100213.03;;;38.10;24.07
58757;BME280;44527;47.460;19.016;2023-06-26T07:57:22;100208.31;;;38.74;24.10
58757;BME280;44527;47.460;19.016;2023-06-26T08:00:25;100218.22;;;37.28;25.03
58757;BME280;44527;47.460;19.016;2023-06-26T08:03:28;100213.31;;;37.25;25.65
58757;BME280;44527;47.460;19.016;2023-06-26T08:06:37;100213.22;;;36.75;25.59
58757;BME280;44527;47.460;19.016;2023-06-26T08:09:42;100205.56;;;36.72;26.54
58757;BME280;44527;47.460;19.016;2023-06-26T08:12:44;100209.97;;;36.58;26.79
58757;BME280;44527;47.460;19.016;2023-06-26T08:15:47;100205.81;;;35.43;27.34
58757;BME280;44527;47.460;19.016;2023-06-26T08:18:51;100204.59;;;33.86;30.16
58757;BME280;44527;47.460;19.016;2023-06-26T08:21:53;100202.34;;;32.85;32.51
58757;BME280;44527;47.460;19.016;2023-06-26T08:24:56;100200.72;;;33.06;31.65
58757;BME280;44527;47.460;19.016;2023-06-26T08:27:58;100212.59;;;33.44;31.34
58757;BME280;44527;47.460;19.016;2023-06-26T08:31:01;100211.91;;;33.53;30.49
58757;BME280;44527;47.460;19.016;2023-06-26T08:34:04;100203.50;;;32.72;31.76
58757;BME280;44527;47.460;19.016;2023-06-26T08:37:07;100197.13;;;32.61;33.55
58757;BME280;44527;47.460;19.016;2023-06-26T08:40:12;100204.06;;;32.52;32.56
58757;BME280;44527;47.460;19.016;2023-06-26T08:43:15;100202.81;;;31.92;33.50
58757;BME280;44527;47.460;19.016;2023-06-26T08:46:18;100204.66;;;31.06;34.55
58757;BME280;44527;47.460;19.016;2023-06-26T08:49:25;100199.16;;;30.77;35.26
58757;BME280;44527;47.460;19.016;2023-06-26T08:52:34;100194.59;;;30.31;36.58
58757;BME280;44527;47.460;19.016;2023-06-26T08:55:38;100195.53;;;29.83;37.26
58757;BME280;44527;47.460;19.016;2023-06-26T08:58:41;100199.28;;;29.21;39.24
58757;BME280;44527;47.460;19.016;2023-06-26T09:01:45;100190.25;;;28.72;40.23
58757;BME280;44527;47.460;19.016;2023-06-26T09:04:49;100195.12;;;28.82;39.55
58757;BME280;44527;47.460;19.016;2023-06-26T09:07:52;100191.88;;;28.55;41.05
58757;BME280;44527;47.460;19.016;2023-06-26T09:11:00;100185.16;;;28.82;41.28
58757;BME280;44527;47.460;19.016;2023-06-26T09:14:03;100187.28;;;29.47;40.64
58757;BME280;44527;47.460;19.016;2023-06-26T09:17:09;100191.78;;;29.95;39.42
58757;BME280;44527;47.460;19.016;2023-06-26T09:20:11;100189.34;;;30.06;36.47
58757;BME280;44527;47.460;19.016;2023-06-26T09:23:16;100191.38;;;30.45;36.15
58757;BME280;44527;47.460;19.016;2023-06-26T09:26:21;100182.81;;;30.37;37.63
58757;BME280;44527;47.460;19.016;2023-06-26T09:29:24;100184.13;;;30.46;36.46
58757;BME280;44527;47.460;19.016;2023-06-26T09:32:28;100182.69;;;30.32;35.72
58757;BME280;44527;47.460;19.016;2023-06-26T09:35:31;100190.56;;;30.68;36.71
58757;BME280;44527;47.460;19.016;2023-06-26T09:38:34;100188.53;;;30.76;35.48
58757;BME280;44527;47.460;19.016;2023-06-26T09:41:38;100180.66;;;30.74;37.98
58757;BME280;44527;47.460;19.016;2023-06-26T09:44:44;100177.97;;;30.86;35.64
58757;BME280;44527;47.460;19.016;2023-06-26T09:47:47;100172.41;;;30.93;35.98
58757;BME280;44527;47.460;19.016;2023-06-26T09:50:50;100176.41;;;31.02;36.04
58757;BME280;44527;47.460;19.016;2023-06-26T09:54:16;100172.25;;;31.11;36.25
58757;BME280;44527;47.460;19.016;2023-06-26T09:57:19;100178.47;;;31.52;35.41
58757;BME280;44527;47.460;19.016;2023-06-26T10:00:25;100180.63;;;31.50;34.33
58757;BME280;44527;47.460;19.016;2023-06-26T10:03:28;100168.63;;;30.94;36.64
58757;BME280;44527;47.460;19.016;2023-06-26T10:06:36;100156.09;;;30.29;37.25
58757;BME280;44527;47.460;19.016;2023-06-26T10:09:42;100159.09;;;29.97;38.80
58757;BME280;44527;47.460;19.016;2023-06-26T10:12:49;100163.38;;;29.63;39.59
58757;BME280;44527;47.460;19.016;2023-06-26T10:16:00;100154.47;;;29.44;40.89
58757;BME280;44527;47.460;19.016;2023-06-26T10:19:06;100156.00;;;29.40;41.21
58757;BME280;44527;47.460;19.016;2023-06-26T10:22:12;100151.31;;;29.77;40.11
58757;BME280;44527;47.460;19.016;2023-06-26T10:25:18;100150.38;;;29.95;40.28
58757;BME280;44527;47.460;19.016;2023-06-26T10:28:22;100154.34;;;30.34;40.54
58757;BME280;44527;47.460;19.016;2023-06-26T10:31:28;100147.56;;;30.60;39.10
58757;BME280;44527;47.460;19.016;2023-06-26T10:34:33;100145.94;;;30.83;38.98
58757;BME280;44527;47.460;19.016;2023-06-26T10:37:42;100156.66;;;31.18;37.53
58757;BME280;44527;47.460;19.016;2023-06-26T10:40:48;100142.97;;;31.53;36.28
58757;BME280;44527;47.460;19.016;2023-06-26T10:44:06;100139.59;;;31.06;39.02
58757;BME280;44527;47.460;19.016;2023-06-26T10:47:10;100139.69;;;31.51;38.54
58757;BME280;44527;47.460;19.016;2023-06-26T10:53:29;100146.91;;;31.05;37.58
58757;BME280;44527;47.460;19.016;2023-06-26T10:56:44;100148.91;;;30.46;38.72
58757;BME280;44527;47.460;19.016;2023-06-26T10:59:47;100144.72;;;29.96;39.12
58757;BME280;44527;47.460;19.016;2023-06-26T11:02:50;100146.31;;;29.32;41.21
58757;BME280;44527;47.460;19.016;2023-06-26T11:06:10;100144.78;;;28.87;42.17
58757;BME280;44527;47.460;19.016;2023-06-26T11:09:18;100151.75;;;28.77;41.16
58757;BME280;44527;47.460;19.016;2023-06-26T11:15:38;100148.50;;;28.50;40.38
58757;BME280;44527;47.460;19.016;2023-06-26T11:18:41;100141.09;;;28.45;40.56
58757;BME280;44527;47.460;19.016;2023-06-26T11:21:44;100146.66;;;28.87;41.36
58757;BME280;44527;47.460;19.016;2023-06-26T11:24:53;100130.78;;;29.58;40.60
58757;BME280;44527;47.460;19.016;2023-06-26T11:27:55;100135.50;;;30.28;39.63
58757;BME280;44527;47.460;19.016;2023-06-26T11:30:58;100129.91;;;30.69;39.83
58757;BME280;44527;47.460;19.016;2023-06-26T11:34:03;100126.34;;;31.21;37.67
58757;BME280;44527;47.460;19.016;2023-06-26T11:37:06;100124.81;;;31.54;37.92
58757;BME280;44527;47.460;19.016;2023-06-26T11:40:18;100123.31;;;31.46;38.75
58757;BME280;44527;47.460;19.016;2023-06-26T11:43:22;100119.38;;;31.54;37.81
58757;BME280;44527;47.460;19.016;2023-06-26T11:46:24;100120.59;;;31.46;36.86
58757;BME280;44527;47.460;19.016;2023-06-26T11:49:28;100122.25;;;31.47;37.07
58757;BME280;44527;47.460;19.016;2023-06-26T11:52:33;100123.22;;;31.01;36.79
58757;BME280;44527;47.460;19.016;2023-06-26T11:55:43;100130.97;;;30.57;37.11
58757;BME280;44527;47.460;19.016;2023-06-26T12:02:09;100109.31;;;29.86;38.74
58757;BME280;44527;47.460;19.016;2023-06-26T12:05:13;100111.87;;;29.27;39.93
58757;BME280;44527;47.460;19.016;2023-06-26T12:08:16;100113.09;;;28.95;42.27
58757;BME280;44527;47.460;19.016;2023-06-26T12:11:20;100115.22;;;28.93;40.03
58757;BME280;44527;47.460;19.016;2023-06-26T12:14:25;100112.59;;;28.68;40.04
58757;BME280;44527;47.460;19.016;2023-06-26T12:17:31;100109.53;;;28.46;42.07
58757;BME280;44527;47.460;19.016;2023-06-26T12:20:40;100101.59;;;28.51;42.87
58757;BME280;44527;47.460;19.016;2023-06-26T12:23:43;100108.25;;;29.03;40.27
58757;BME280;44527;47.460;19.016;2023-06-26T12:26:53;100108.06;;;29.59;40.03
58757;BME280;44527;47.460;19.016;2023-06-26T12:29:57;100110.50;;;30.14;37.04
58757;BME280;44527;47.460;19.016;2023-06-26T12:32:59;100099.56;;;30.44;38.14
58757;BME280;44527;47.460;19.016;2023-06-26T12:36:02;100100.78;;;30.88;37.38
58757;BME280;44527;47.460;19.016;2023-06-26T12:39:05;100103.78;;;31.04;36.56
58757;BME280;44527;47.460;19.016;2023-06-26T12:42:07;100106.84;;;31.07;36.22
58757;BME280;44527;47.460;19.016;2023-06-26T12:45:11;100108.13;;;30.64;37.48
58757;BME280;44527;47.460;19.016;2023-06-26T12:48:39;100105.44;;;30.06;38.03
58757;BME280;44527;47.460;19.016;2023-06-26T12:51:51;100101.03;;;29.58;40.29
58757;BME280;44527;47.460;19.016;2023-06-26T12:54:54;100094.97;;;29.44;41.01
58757;BME280;44527;47.460;19.016;2023-06-26T12:57:58;100093.25;;;29.49;41.33
58757;BME280;44527;47.460;19.016;2023-06-26T13:01:03;100089.66;;;29.67;39.77
58757;BME280;44527;47.460;19.016;2023-06-26T13:04:06;100090.53;;;30.03;39.30
58757;BME280;44527;47.460;19.016;2023-06-26T13:07:11;100084.75;;;30.11;39.84
58757;BME280;44527;47.460;19.016;2023-06-26T13:10:43;100085.72;;;30.29;38.78
58757;BME280;44527;47.460;19.016;2023-06-26T13:13:47;100091.16;;;30.81;38.33
58757;BME280;44527;47.460;19.016;2023-06-26T13:17:11;100095.66;;;31.04;36.96
58757;BME280;44527;47.460;19.016;2023-06-26T13:20:14;100094.69;;;30.81;39.54
58757;BME280;44527;47.460;19.016;2023-06-26T13:23:16;100094.47;;;30.59;39.23
58757;BME280;44527;47.460;19.016;2023-06-26T13:26:22;100087.44;;;30.11;39.93
58757;BME280;44527;47.460;19.016;2023-06-26T13:29:38;100084.97;;;29.86;39.44
58757;BME280;44527;47.460;19.016;2023-06-26T13:32:40;100075.44;;;29.95;41.10
58757;BME280;44527;47.460;19.016;2023-06-26T13:35:43;100072.53;;;30.20;39.21
58757;BME280;44527;47.460;19.016;2023-06-26T13:38:46;100071.22;;;30.35;38.76
58757;BME280;44527;47.460;19.016;2023-06-26T13:41:50;100063.13;;;30.63;40.33
58757;BME280;44527;47.460;19.016;2023-06-26T13:44:53;100070.31;;;30.81;38.51
58757;BME280;44527;47.460;19.016;2023-06-26T13:48:05;100070.16;;;30.76;36.43
58757;BME280;44527;47.460;19.016;2023-06-26T13:51:08;100069.44;;;30.52;38.45
58757;BME280;44527;47.460;19.016;2023-06-26T13:54:11;100065.91;;;30.40;38.06
58757;BME280;44527;47.460;19.016;2023-06-26T13:57:14;100070.84;;;30.08;39.24
58757;BME280;44527;47.460;19.016;2023-06-26T14:00:16;100068.53;;;29.88;38.83
58757;BME280;44527;47.460;19.016;2023-06-26T14:03:23;100056.09;;;29.57;40.11
58757;BME280;44527;47.460;19.016;2023-06-26T14:06:26;100063.06;;;29.22;40.24
58757;BME280;44527;47.460;19.016;2023-06-26T14:09:29;100053.19;;;29.16;40.30
58757;BME280;44527;47.460;19.016;2023-06-26T14:12:32;100056.63;;;29.23;40.34
58757;BME280;44527;47.460;19.016;2023-06-26T14:15:35;100066.53;;;29.41;40.07
58757;BME280;44527;47.460;19.016;2023-06-26T14:18:38;100055.69;;;29.71;41.01
58757;BME280;44527;47.460;19.016;2023-06-26T14:21:41;100056.50;;;29.84;39.71
58757;BME280;44527;47.460;19.016;2023-06-26T14:24:44;100057.09;;;29.97;39.97
58757;BME280;44527;47.460;19.016;2023-06-26T14:27:46;100058.41;;;29.95;40.41
58757;BME280;44527;47.460;19.016;2023-06-26T14:30:49;100052.62;;;29.80;38.43
58757;BME280;44527;47.460;19.016;2023-06-26T14:33:52;100050.75;;;29.80;39.29
58757;BME280;44527;47.460;19.016;2023-06-26T14:36:55;100049.69;;;29.93;39.93
58757;BME280;44527;47.460;19.016;2023-06-26T14:39:58;100058.97;;;30.09;38.72
58757;BME280;44527;47.460;19.016;2023-06-26T14:43:01;100055.22;;;29.86;39.62
58757;BME280;44527;47.460;19.016;2023-06-26T14:46:04;100052.88;;;29.66;39.65
58757;BME280;44527;47.460;19.016;2023-06-26T14:49:07;100053.03;;;29.53;39.75
58757;BME280;44527;47.460;19.016;2023-06-26T14:52:10;100044.75;;;29.24;40.49
58757;BME280;44527;47.460;19.016;2023-06-26T14:55:13;100047.94;;;29.21;40.44
58757;BME280;44527;47.460;19.016;2023-06-26T14:58:15;100040.00;;;28.78;41.79
58757;BME280;44527;47.460;19.016;2023-06-26T15:01:19;100041.41;;;28.62;43.54
58757;BME280;44527;47.460;19.016;2023-06-26T15:04:22;100038.56;;;28.38;42.78
58757;BME280;44527;47.460;19.016;2023-06-26T15:07:24;100037.81;;;28.31;41.83
58757;BME280;44527;47.460;19.016;2023-06-26T15:10:27;100033.09;;;28.27;41.56
58757;BME280;44527;47.460;19.016;2023-06-26T15:13:32;100031.06;;;28.22;42.42
58757;BME280;44527;47.460;19.016;2023-06-26T15:16:35;100034.59;;;28.23;41.79
58757;BME280;44527;47.460;19.016;2023-06-26T15:19:38;100025.44;;;28.24;42.35
58757;BME280;44527;47.460;19.016;2023-06-26T15:22:41;100023.75;;;28.29;41.63
58757;BME280;44527;47.460;19.016;2023-06-26T15:25:43;100017.66;;;28.52;42.37
58757;BME280;44527;47.460;19.016;2023-06-26T15:28:46;100021.25;;;28.64;42.81
58757;BME280;44527;47.460;19.016;2023-06-26T15:31:50;100020.28;;;28.59;42.40
58757;BME280;44527;47.460;19.016;2023-06-26T15:34:53;100021.13;;;28.59;43.38
58757;BME280;44527;47.460;19.016;2023-06-26T15:37:56;100023.06;;;28.52;42.26
58757;BME280;44527;47.460;19.016;2023-06-26T15:40:59;100021.62;;;28.50;42.23
58757;BME280;44527;47.460;19.016;2023-06-26T15:44:01;100020.44;;;28.46;43.25
58757;BME280;44527;47.460;19.016;2023-06-26T15:47:04;100019.91;;;28.55;42.70
58757;BME280;44527;47.460;19.016;2023-06-26T15:50:07;100014.97;;;28.52;41.50
58757;BME280;44527;47.460;19.016;2023-06-26T15:53:15;100012.47;;;28.69;42.18
58757;BME280;44527;47.460;19.016;2023-06-26T15:56:21;100010.75;;;28.75;40.55
58757;BME280;44527;47.460;19.016;2023-06-26T15:59:24;100010.06;;;28.61;41.43
58757;BME280;44527;47.460;19.016;2023-06-26T16:02:27;100010.25;;;28.48;40.71
58757;BME280;44527;47.460;19.016;2023-06-26T16:05:29;100002.75;;;28.50;40.23
58757;BME280;44527;47.460;19.016;2023-06-26T16:08:32;100014.38;;;28.50;41.47
58757;BME280;44527;47.460;19.016;2023-06-26T16:11:34;100010.16;;;28.54;41.01
58757;BME280;44527;47.460;19.016;2023-06-26T16:14:37;100004.31;;;28.39;40.03
58757;BME280;44527;47.460;19.016;2023-06-26T16:17:40;100013.69;;;28.36;41.31